sensor_id;sensor_type;location;lat;lon;timestamp;P1;durP1;ratioP1;P2;durP2;ratioP2
75316;SDS011;63913;51.492;10.368;2022-09-28T15:57:39;7.88;;;4.10;;
75316;SDS011;63913;51.492;10.368;2022-09-28T16:00:15;8.43;;;4.20;;
75316;SDS011;63913;51.492;10.368;2022-09-28T16:03:17;8.80;;;3.85;;
75316;SDS011;63913;51.492;10.368;2022-09-28T16:10:53;22.00;;;12.88;;
75316;SDS011;63913;51.492;10.368;2022-09-28T16:13:22;8.40;;;4.72;;
75316;SDS011;63913;51.492;10.368;2022-09-28T16:15:57;17.48;;;8.43;;
75316;SDS011;63913;51.492;10.368;2022-09-28T16:18:24;18.88;;;9.73;;
75316;SDS011;63913;51.492;10.368;2022-09-28T16:23:52;13.70;;;5.35;;
75316;SDS011;63913;51.492;10.368;2022-09-28T16:26:32;8.75;;;4.20;;
75316;SDS011;63913;51.492;10.368;2022-09-28T16:29:12;8.77;;;4.30;;
75316;SDS011;63913;51.492;10.368;2022-09-28T16:31:49;5.53;;;2.40;;
75316;SDS011;63913;51.492;10.368;2022-09-28T16:34:17;3.45;;;2.60;;
75316;SDS011;63913;51.492;10.368;2022-09-28T16:36:45;3.58;;;2.33;;
75316;SDS011;63913;51.492;10.368;2022-09-28T16:39:12;5.40;;;2.72;;
75316;SDS011;63913;51.492;10.368;2022-09-28T16:41:38;3.90;;;2.22;;
75316;SDS011;63913;51.492;10.368;2022-09-28T16:44:16;3.90;;;2.05;;
75316;SDS011;63913;51.492;10.368;2022-09-28T16:46:45;7.05;;;4.00;;
75316;SDS011;63913;51.492;10.368;2022-09-28T16:49:11;5.82;;;2.95;;
75316;SDS011;63913;51.492;10.368;2022-09-28T16:51:47;3.35;;;2.40;;
75316;SDS011;63913;51.492;10.368;2022-09-28T16:54:23;5.65;;;2.97;;
75316;SDS011;63913;51.492;10.368;2022-09-28T16:57:10;4.13;;;2.30;;
75316;SDS011;63913;51.492;10.368;2022-09-28T16:59:37;5.03;;;2.30;;
75316;SDS011;63913;51.492;10.368;2022-09-28T17:02:15;3.20;;;1.95;;
75316;SDS011;63913;51.492;10.368;2022-09-28T17:04:49;3.70;;;1.90;;
75316;SDS011;63913;51.492;10.368;2022-09-28T17:07:15;2.25;;;1.50;;
75316;SDS011;63913;51.492;10.368;2022-09-28T17:09:40;1.40;;;1.20;;
75316;SDS011;63913;51.492;10.368;2022-09-28T17:12:23;1.80;;;1.33;;
75316;SDS011;63913;51.492;10.368;2022-09-28T17:14:53;3.05;;;1.55;;
75316;SDS011;63913;51.492;10.368;2022-09-28T17:17:18;2.30;;;1.40;;
75316;SDS011;63913;51.492;10.368;2022-09-28T17:19:45;1.23;;;1.10;;
75316;SDS011;63913;51.492;10.368;2022-09-28T17:22:10;2.72;;;1.73;;
75316;SDS011;63913;51.492;10.368;2022-09-28T17:24:36;3.20;;;2.60;;
75316;SDS011;63913;51.492;10.368;2022-09-28T17:27:03;4.43;;;2.60;;
75316;SDS011;63913;51.492;10.368;2022-09-28T17:29:30;4.65;;;2.75;;
75316;SDS011;63913;51.492;10.368;2022-09-28T17:31:56;4.78;;;2.72;;
75316;SDS011;63913;51.492;10.368;2022-09-28T17:34:21;6.07;;;3.17;;
75316;SDS011;63913;51.492;10.368;2022-09-28T17:36:47;9.13;;;3.95;;
75316;SDS011;63913;51.492;10.368;2022-09-28T17:39:14;4.70;;;3.00;;
75316;SDS011;63913;51.492;10.368;2022-09-28T17:41:40;2.97;;;2.10;;
75316;SDS011;63913;51.492;10.368;2022-09-28T17:44:06;5.33;;;2.50;;
75316;SDS011;63913;51.492;10.368;2022-09-28T17:46:32;4.20;;;2.63;;
75316;SDS011;63913;51.492;10.368;2022-09-28T17:49:01;4.30;;;2.40;;
75316;SDS011;63913;51.492;10.368;2022-09-28T17:51:27;3.38;;;2.08;;
75316;SDS011;63913;51.492;10.368;2022-09-28T17:53:55;3.42;;;2.13;;
75316;SDS011;63913;51.492;10.368;2022-09-28T17:56:22;2.28;;;1.65;;
75316;SDS011;63913;51.492;10.368;2022-09-28T17:58:48;2.17;;;1.70;;
75316;SDS011;63913;51.492;10.368;2022-09-28T18:01:13;2.83;;;1.53;;
75316;SDS011;63913;51.492;10.368;2022-09-28T18:03:39;3.08;;;2.10;;
75316;SDS011;63913;51.492;10.368;2022-09-28T18:06:05;13.13;;;5.57;;
75316;SDS011;63913;51.492;10.368;2022-09-28T18:08:32;8.43;;;4.13;;
75316;SDS011;63913;51.492;10.368;2022-09-28T18:10:58;15.60;;;5.13;;
75316;SDS011;63913;51.492;10.368;2022-09-28T18:13:25;10.73;;;4.60;;
75316;SDS011;63913;51.492;10.368;2022-09-28T18:15:51;9.63;;;4.53;;
75316;SDS011;63913;51.492;10.368;2022-09-28T18:18:16;10.95;;;4.40;;
75316;SDS011;63913;51.492;10.368;2022-09-28T18:20:42;12.95;;;4.22;;
75316;SDS011;63913;51.492;10.368;2022-09-28T18:23:07;10.57;;;4.03;;
75316;SDS011;63913;51.492;10.368;2022-09-28T18:25:33;7.53;;;3.22;;
75316;SDS011;63913;51.492;10.368;2022-09-28T18:27:58;6.07;;;2.87;;
75316;SDS011;63913;51.492;10.368;2022-09-28T18:30:24;5.40;;;2.22;;
75316;SDS011;63913;51.492;10.368;2022-09-28T18:32:51;6.38;;;3.75;;
75316;SDS011;63913;51.492;10.368;2022-09-28T18:35:16;5.47;;;3.42;;
75316;SDS011;63913;51.492;10.368;2022-09-28T18:37:42;4.97;;;2.47;;
75316;SDS011;63913;51.492;10.368;2022-09-28T18:40:08;7.15;;;3.13;;
75316;SDS011;63913;51.492;10.368;2022-09-28T18:42:36;3.97;;;2.60;;
75316;SDS011;63913;51.492;10.368;2022-09-28T18:45:02;3.80;;;2.33;;
75316;SDS011;63913;51.492;10.368;2022-09-28T18:47:29;3.92;;;2.15;;
75316;SDS011;63913;51.492;10.368;2022-09-28T18:49:55;5.78;;;2.42;;
75316;SDS011;63913;51.492;10.368;2022-09-28T18:52:22;4.38;;;2.33;;
75316;SDS011;63913;51.492;10.368;2022-09-28T18:54:47;5.40;;;2.30;;
75316;SDS011;63913;51.492;10.368;2022-09-28T18:57:14;5.70;;;2.80;;
75316;SDS011;63913;51.492;10.368;2022-09-28T18:59:39;5.72;;;2.90;;
75316;SDS011;63913;51.492;10.368;2022-09-28T19:02:05;4.47;;;2.63;;
75316;SDS011;63913;51.492;10.368;2022-09-28T19:04:30;2.55;;;1.67;;
75316;SDS011;63913;51.492;10.368;2022-09-28T19:06:56;3.50;;;1.90;;
75316;SDS011;63913;51.492;10.368;2022-09-28T19:09:21;3.93;;;2.40;;
75316;SDS011;63913;51.492;10.368;2022-09-28T19:11:48;6.32;;;2.20;;
75316;SDS011;63913;51.492;10.368;2022-09-28T19:14:14;3.80;;;2.50;;
75316;SDS011;63913;51.492;10.368;2022-09-28T19:16:40;7.30;;;2.65;;
75316;SDS011;63913;51.492;10.368;2022-09-28T19:19:06;4.40;;;2.60;;
75316;SDS011;63913;51.492;10.368;2022-09-28T19:21:32;4.75;;;2.22;;
75316;SDS011;63913;51.492;10.368;2022-09-28T19:24:01;4.03;;;2.20;;
75316;SDS011;63913;51.492;10.368;2022-09-28T19:26:27;3.35;;;2.50;;
75316;SDS011;63913;51.492;10.368;2022-09-28T19:28:54;3.97;;;2.38;;
75316;SDS011;63913;51.492;10.368;2022-09-28T19:31:20;5.85;;;2.85;;
75316;SDS011;63913;51.492;10.368;2022-09-28T19:33:46;4.07;;;2.28;;
75316;SDS011;63913;51.492;10.368;2022-09-28T19:36:13;5.25;;;2.05;;
75316;SDS011;63913;51.492;10.368;2022-09-28T19:38:43;2.58;;;2.00;;
75316;SDS011;63913;51.492;10.368;2022-09-28T19:41:10;4.50;;;2.58;;
75316;SDS011;63913;51.492;10.368;2022-09-28T19:43:58;2.75;;;1.88;;
75316;SDS011;63913;51.492;10.368;2022-09-28T19:46:26;3.70;;;2.40;;
75316;SDS011;63913;51.492;10.368;2022-09-28T19:48:52;3.08;;;1.83;;
75316;SDS011;63913;51.492;10.368;2022-09-28T19:51:18;2.70;;;1.90;;
75316;SDS011;63913;51.492;10.368;2022-09-28T19:53:43;2.83;;;1.70;;
75316;SDS011;63913;51.492;10.368;2022-09-28T19:56:09;3.70;;;2.10;;
75316;SDS011;63913;51.492;10.368;2022-09-28T19:58:35;4.53;;;1.88;;
75316;SDS011;63913;51.492;10.368;2022-09-28T20:01:04;4.65;;;2.00;;
75316;SDS011;63913;51.492;10.368;2022-09-28T20:05:57;3.03;;;1.73;;
75316;SDS011;63913;51.492;10.368;2022-09-28T20:08:23;3.00;;;1.80;;
75316;SDS011;63913;51.492;10.368;2022-09-28T20:10:50;3.05;;;1.70;;
75316;SDS011;63913;51.492;10.368;2022-09-28T20:13:18;2.58;;;1.80;;
75316;SDS011;63913;51.492;10.368;2022-09-28T20:15:47;3.22;;;1.88;;
75316;SDS011;63913;51.492;10.368;2022-09-28T20:18:12;3.63;;;2.38;;
75316;SDS011;63913;51.492;10.368;2022-09-28T20:20:38;5.70;;;2.20;;
75316;SDS011;63913;51.492;10.368;2022-09-28T20:23:06;6.50;;;2.58;;
75316;SDS011;63913;51.492;10.368;2022-09-28T20:25:33;4.78;;;2.22;;
75316;SDS011;63913;51.492;10.368;2022-09-28T20:27:59;3.28;;;1.95;;
75316;SDS011;63913;51.492;10.368;2022-09-28T20:30:25;3.83;;;2.20;;
75316;SDS011;63913;51.492;10.368;2022-09-28T20:32:50;4.17;;;2.20;;
75316;SDS011;63913;51.492;10.368;2022-09-28T20:35:16;3.38;;;2.20;;
75316;SDS011;63913;51.492;10.368;2022-09-28T20:37:41;3.30;;;2.13;;
75316;SDS011;63913;51.492;10.368;2022-09-28T20:40:07;3.83;;;2.10;;
75316;SDS011;63913;51.492;10.368;2022-09-28T20:42:36;4.00;;;2.30;;
75316;SDS011;63913;51.492;10.368;2022-09-28T20:45:01;5.60;;;2.40;;
75316;SDS011;63913;51.492;10.368;2022-09-28T20:47:27;3.65;;;2.30;;
75316;SDS011;63913;51.492;10.368;2022-09-28T20:49:53;5.07;;;2.60;;
75316;SDS011;63913;51.492;10.368;2022-09-28T20:52:18;3.40;;;2.10;;
75316;SDS011;63913;51.492;10.368;2022-09-28T20:54:44;5.53;;;2.80;;
75316;SDS011;63913;51.492;10.368;2022-09-28T20:57:09;5.70;;;2.70;;
75316;SDS011;63913;51.492;10.368;2022-09-28T20:59:44;5.15;;;2.33;;
75316;SDS011;63913;51.492;10.368;2022-09-28T21:02:12;7.57;;;2.90;;
75316;SDS011;63913;51.492;10.368;2022-09-28T21:04:40;5.72;;;2.45;;
75316;SDS011;63913;51.492;10.368;2022-09-28T21:07:06;6.13;;;2.53;;
75316;SDS011;63913;51.492;10.368;2022-09-28T21:09:32;5.95;;;2.50;;
75316;SDS011;63913;51.492;10.368;2022-09-28T21:11:57;5.35;;;2.42;;
75316;SDS011;63913;51.492;10.368;2022-09-28T21:14:23;5.13;;;2.95;;
75316;SDS011;63913;51.492;10.368;2022-09-28T21:16:50;7.28;;;2.65;;
75316;SDS011;63913;51.492;10.368;2022-09-28T21:19:16;3.72;;;2.53;;
75316;SDS011;63913;51.492;10.368;2022-09-28T21:21:44;5.75;;;2.78;;
75316;SDS011;63913;51.492;10.368;2022-09-28T21:24:11;5.28;;;2.38;;
75316;SDS011;63913;51.492;10.368;2022-09-28T21:26:36;5.43;;;2.73;;
75316;SDS011;63913;51.492;10.368;2022-09-28T21:29:03;5.15;;;2.85;;
75316;SDS011;63913;51.492;10.368;2022-09-28T21:31:40;4.50;;;2.75;;
75316;SDS011;63913;51.492;10.368;2022-09-28T21:34:16;4.85;;;2.40;;
75316;SDS011;63913;51.492;10.368;2022-09-28T21:36:43;5.50;;;2.88;;
75316;SDS011;63913;51.492;10.368;2022-09-28T21:39:10;6.32;;;2.67;;
75316;SDS011;63913;51.492;10.368;2022-09-28T21:41:35;5.28;;;2.70;;
75316;SDS011;63913;51.492;10.368;2022-09-28T21:44:01;5.10;;;2.80;;
75316;SDS011;63913;51.492;10.368;2022-09-28T21:46:26;5.93;;;2.50;;
75316;SDS011;63913;51.492;10.368;2022-09-28T21:48:57;5.63;;;2.67;;
75316;SDS011;63913;51.492;10.368;2022-09-28T21:51:23;6.70;;;2.90;;
75316;SDS011;63913;51.492;10.368;2022-09-28T21:53:48;3.87;;;2.50;;
75316;SDS011;63913;51.492;10.368;2022-09-28T21:56:13;4.37;;;2.40;;
75316;SDS011;63913;51.492;10.368;2022-09-28T21:58:39;6.37;;;3.03;;
75316;SDS011;63913;51.492;10.368;2022-09-28T22:03:34;4.60;;;2.17;;
75316;SDS011;63913;51.492;10.368;2022-09-28T22:06:00;6.07;;;2.67;;
75316;SDS011;63913;51.492;10.368;2022-09-28T22:08:30;4.20;;;2.50;;
75316;SDS011;63913;51.492;10.368;2022-09-28T22:10:56;6.05;;;2.50;;
75316;SDS011;63913;51.492;10.368;2022-09-28T22:13:28;5.32;;;2.80;;
75316;SDS011;63913;51.492;10.368;2022-09-28T22:15:55;4.22;;;2.42;;
75316;SDS011;63913;51.492;10.368;2022-09-28T22:18:22;5.68;;;2.92;;
75316;SDS011;63913;51.492;10.368;2022-09-28T22:20:56;3.67;;;2.15;;
75316;SDS011;63913;51.492;10.368;2022-09-28T22:23:26;5.53;;;2.63;;
75316;SDS011;63913;51.492;10.368;2022-09-28T22:26:02;4.45;;;2.50;;
75316;SDS011;63913;51.492;10.368;2022-09-28T22:28:31;5.18;;;2.60;;
75316;SDS011;63913;51.492;10.368;2022-09-28T22:30:58;5.63;;;2.95;;
75316;SDS011;63913;51.492;10.368;2022-09-28T22:33:23;6.05;;;2.72;;
75316;SDS011;63913;51.492;10.368;2022-09-28T22:35:49;5.03;;;2.50;;
75316;SDS011;63913;51.492;10.368;2022-09-28T22:38:15;5.15;;;2.30;;
75316;SDS011;63913;51.492;10.368;2022-09-28T22:40:52;5.40;;;3.05;;
75316;SDS011;63913;51.492;10.368;2022-09-28T22:43:19;5.45;;;2.65;;
75316;SDS011;63913;51.492;10.368;2022-09-28T22:45:46;5.25;;;2.55;;
75316;SDS011;63913;51.492;10.368;2022-09-28T22:48:12;5.80;;;3.03;;
75316;SDS011;63913;51.492;10.368;2022-09-28T22:50:37;8.10;;;2.92;;
75316;SDS011;63913;51.492;10.368;2022-09-28T22:53:03;5.93;;;2.80;;
75316;SDS011;63913;51.492;10.368;2022-09-28T22:55:29;5.13;;;2.70;;
75316;SDS011;63913;51.492;10.368;2022-09-28T22:57:58;5.22;;;2.80;;
75316;SDS011;63913;51.492;10.368;2022-09-28T23:00:24;6.97;;;3.50;;
75316;SDS011;63913;51.492;10.368;2022-09-28T23:02:49;5.53;;;2.73;;
75316;SDS011;63913;51.492;10.368;2022-09-28T23:05:15;5.80;;;3.10;;
75316;SDS011;63913;51.492;10.368;2022-09-28T23:07:41;8.05;;;3.28;;
75316;SDS011;63913;51.492;10.368;2022-09-28T23:10:07;4.95;;;2.72;;
75316;SDS011;63913;51.492;10.368;2022-09-28T23:12:33;8.63;;;3.58;;
75316;SDS011;63913;51.492;10.368;2022-09-28T23:14:59;5.50;;;2.88;;
75316;SDS011;63913;51.492;10.368;2022-09-28T23:17:24;7.17;;;3.60;;
75316;SDS011;63913;51.492;10.368;2022-09-28T23:19:50;5.73;;;3.20;;
75316;SDS011;63913;51.492;10.368;2022-09-28T23:22:15;8.23;;;3.33;;
75316;SDS011;63913;51.492;10.368;2022-09-28T23:24:40;6.27;;;3.33;;
75316;SDS011;63913;51.492;10.368;2022-09-28T23:27:06;7.93;;;2.90;;
75316;SDS011;63913;51.492;10.368;2022-09-28T23:29:31;5.65;;;3.10;;
75316;SDS011;63913;51.492;10.368;2022-09-28T23:31:57;6.43;;;3.03;;
75316;SDS011;63913;51.492;10.368;2022-09-28T23:34:22;9.43;;;4.00;;
75316;SDS011;63913;51.492;10.368;2022-09-28T23:36:50;4.80;;;2.63;;
75316;SDS011;63913;51.492;10.368;2022-09-28T23:39:15;7.70;;;2.85;;
75316;SDS011;63913;51.492;10.368;2022-09-28T23:41:41;7.17;;;2.90;;
75316;SDS011;63913;51.492;10.368;2022-09-28T23:44:06;7.17;;;3.00;;
75316;SDS011;63913;51.492;10.368;2022-09-28T23:46:32;6.18;;;3.20;;
75316;SDS011;63913;51.492;10.368;2022-09-28T23:48:57;7.32;;;3.38;;
75316;SDS011;63913;51.492;10.368;2022-09-28T23:51:22;6.17;;;3.33;;
75316;SDS011;63913;51.492;10.368;2022-09-28T23:53:48;7.77;;;3.23;;
75316;SDS011;63913;51.492;10.368;2022-09-28T23:56:13;6.50;;;3.30;;
75316;SDS011;63913;51.492;10.368;2022-09-28T23:58:39;7.65;;;3.50;;
